createdAt,value
2022-12-18T00:01:30.600Z,85.18
2022-12-18T00:03:59.060Z,107.70
2022-12-18T00:06:29.237Z,104.55
2022-12-18T00:08:58.047Z,100.25
2022-12-18T00:11:28.304Z,104.47
2022-12-18T00:13:57.740Z,90.88
2022-12-18T00:16:27.038Z,98.15
2022-12-18T00:18:56.684Z,105.82
2022-12-18T00:21:25.173Z,114.85
2022-12-18T00:23:53.111Z,121.40
2022-12-18T00:26:25.584Z,125.93
2022-12-18T00:29:01.067Z,126.72
2022-12-18T00:31:30.689Z,142.40
2022-12-18T00:33:58.579Z,128.40
2022-12-18T00:36:29.257Z,122.75
2022-12-18T00:38:58.045Z,103.13
2022-12-18T00:41:44.678Z,96.65
2022-12-18T00:44:14.371Z,83.30
2022-12-18T00:46:42.335Z,87.50
2022-12-18T00:49:09.831Z,94.53
2022-12-18T00:51:40.078Z,97.53
2022-12-18T00:54:07.412Z,99.07
2022-12-18T00:56:48.023Z,100.43
2022-12-18T00:59:17.617Z,88.10
2022-12-18T01:01:45.949Z,95.72
2022-12-18T01:04:13.588Z,86.70
2022-12-18T01:06:41.349Z,88.20
2022-12-18T01:09:08.580Z,93.32
2022-12-18T01:11:37.813Z,99.70
2022-12-18T01:14:05.778Z,64.47
2022-12-18T01:16:33.210Z,58.90
2022-12-18T01:19:00.507Z,68.63
2022-12-18T01:21:29.053Z,59.05
2022-12-18T01:23:57.101Z,53.20
2022-12-18T01:26:26.247Z,53.88
2022-12-18T01:28:55.566Z,57.53
2022-12-18T01:31:29.937Z,70.93
2022-12-18T01:33:58.596Z,74.75
2022-12-18T01:36:28.674Z,75.68
2022-12-18T01:38:57.116Z,88.80
2022-12-18T01:41:27.184Z,86.15
2022-12-18T01:43:58.000Z,86.90
2022-12-18T01:46:26.809Z,96.70
2022-12-18T01:51:31.035Z,94.43
2022-12-18T01:54:00.246Z,90.63
2022-12-18T01:56:27.712Z,89.97
2022-12-18T01:59:08.664Z,93.43
2022-12-18T02:01:37.297Z,99.15
2022-12-18T02:04:23.870Z,91.53
2022-12-18T02:07:07.428Z,83.53
2022-12-18T02:09:51.447Z,79.90
2022-12-18T02:12:25.080Z,83.63
2022-12-18T02:15:23.145Z,88.70
2022-12-18T02:17:57.907Z,84.63
2022-12-18T02:20:37.661Z,83.68
2022-12-18T02:23:13.856Z,90.60
2022-12-18T02:25:59.972Z,87.70
2022-12-18T02:28:32.962Z,72.57
2022-12-18T02:31:07.440Z,77.88
2022-12-18T02:33:37.435Z,77.40
2022-12-18T02:36:06.818Z,79.63
2022-12-18T02:38:36.061Z,68.35
2022-12-18T02:41:10.530Z,82.80
2022-12-18T02:43:38.314Z,75.70
2022-12-18T02:46:45.010Z,74.78
2022-12-18T02:49:24.474Z,83.55
2022-12-18T02:52:32.830Z,80.32
2022-12-18T02:55:27.420Z,85.20
2022-12-18T02:58:03.441Z,86.50
2022-12-18T03:01:00.527Z,85.13
2022-12-18T03:03:56.479Z,80.50
2022-12-18T03:06:49.529Z,77.82
2022-12-18T03:09:23.170Z,84.82
2022-12-18T03:12:16.547Z,74.25
2022-12-18T03:14:46.264Z,68.82
2022-12-18T03:19:47.156Z,70.47
2022-12-18T03:22:17.424Z,72.15
2022-12-18T03:24:50.206Z,72.60
2022-12-18T03:27:21.865Z,69.25
2022-12-18T03:30:13.345Z,70.47
2022-12-18T03:33:02.677Z,71.55
2022-12-18T03:35:36.126Z,68.40
2022-12-18T03:38:06.076Z,71.85
2022-12-18T03:41:02.169Z,69.85
2022-12-18T03:43:50.293Z,60.13
2022-12-18T03:46:29.665Z,67.40
2022-12-18T03:49:12.627Z,69.05
2022-12-18T03:51:48.812Z,64.88
2022-12-18T03:54:17.480Z,63.80
2022-12-18T03:57:04.000Z,67.78
2022-12-18T03:59:32.551Z,65.47
2022-12-18T04:02:02.247Z,55.22
2022-12-18T04:04:32.087Z,65.43
2022-12-18T04:07:03.818Z,63.97
2022-12-18T04:09:34.990Z,67.63
2022-12-18T04:12:02.429Z,60.28
2022-12-18T04:14:30.635Z,60.08
2022-12-18T04:16:58.136Z,69.82
2022-12-18T04:19:30.934Z,63.28
2022-12-18T04:21:59.845Z,59.47
2022-12-18T04:24:28.007Z,63.45
2022-12-18T04:27:05.845Z,60.28
2022-12-18T04:29:40.291Z,54.13
2022-12-18T04:32:08.075Z,59.03
2022-12-18T04:34:35.548Z,61.80
2022-12-18T04:37:03.144Z,54.00
2022-12-18T04:39:31.488Z,58.53
2022-12-18T04:42:04.382Z,57.50
2022-12-18T04:44:31.651Z,58.30
2022-12-18T04:46:58.889Z,54.85
2022-12-18T04:49:26.277Z,54.33
2022-12-18T04:51:54.754Z,49.58
2022-12-18T04:54:22.567Z,54.55
2022-12-18T04:56:49.831Z,51.60
2022-12-18T04:59:17.077Z,58.72
2022-12-18T05:01:44.501Z,50.70
2022-12-18T05:04:11.959Z,52.30
2022-12-18T05:06:39.275Z,52.83
2022-12-18T05:09:06.480Z,51.00
2022-12-18T05:11:33.791Z,49.53
2022-12-18T05:14:00.975Z,46.60
2022-12-18T05:16:28.244Z,54.25
2022-12-18T05:18:55.536Z,55.72
2022-12-18T05:21:22.797Z,46.22
2022-12-18T05:23:50.238Z,52.00
2022-12-18T05:26:19.031Z,54.55
2022-12-18T05:28:47.185Z,48.20
2022-12-18T05:31:14.889Z,54.35
2022-12-18T05:33:42.810Z,51.67
2022-12-18T05:36:11.435Z,44.97
2022-12-18T05:38:40.310Z,49.65
2022-12-18T05:41:08.500Z,54.75
2022-12-18T05:43:38.449Z,49.55
2022-12-18T05:46:13.268Z,51.05
2022-12-18T05:48:40.642Z,51.78
2022-12-18T05:51:13.407Z,52.33
2022-12-18T05:53:40.928Z,52.28
2022-12-18T05:56:13.943Z,58.08
2022-12-18T05:58:41.391Z,47.05
2022-12-18T06:01:19.375Z,51.63
2022-12-18T06:03:47.325Z,56.83
2022-12-18T06:06:20.764Z,52.58
2022-12-18T06:08:48.124Z,53.58
2022-12-18T06:11:19.892Z,53.22
2022-12-18T06:13:47.809Z,53.53
2022-12-18T06:16:15.113Z,54.75
2022-12-18T06:18:42.946Z,51.20
2022-12-18T06:21:10.257Z,51.42
2022-12-18T06:23:37.882Z,49.78
2022-12-18T06:26:10.286Z,50.20
2022-12-18T06:28:37.554Z,50.78
2022-12-18T06:31:05.980Z,53.55
2022-12-18T06:33:33.875Z,51.70
2022-12-18T06:36:03.097Z,48.38
2022-12-18T06:38:30.311Z,48.38
2022-12-18T06:40:57.645Z,53.17
2022-12-18T06:43:25.404Z,45.60
2022-12-18T06:45:54.059Z,54.10
2022-12-18T06:48:21.447Z,54.50
2022-12-18T06:50:48.986Z,55.63
2022-12-18T06:53:16.188Z,49.88
2022-12-18T06:55:44.015Z,54.33
2022-12-18T06:58:11.212Z,49.25
2022-12-18T07:00:39.097Z,50.92
2022-12-18T07:03:06.419Z,49.50
2022-12-18T07:05:33.900Z,49.33
2022-12-18T07:08:01.425Z,48.88
2022-12-18T07:10:28.658Z,45.40
2022-12-18T07:12:55.871Z,55.78
2022-12-18T07:15:23.102Z,50.67
2022-12-18T07:17:50.459Z,53.50
2022-12-18T07:20:17.822Z,56.80
2022-12-18T07:22:45.044Z,54.03
2022-12-18T07:25:12.260Z,47.30
2022-12-18T07:27:39.464Z,47.85
2022-12-18T07:30:07.512Z,50.55
2022-12-18T07:32:35.444Z,54.47
2022-12-18T07:35:02.773Z,47.95
2022-12-18T07:37:30.014Z,54.55
2022-12-18T07:39:57.304Z,49.70
2022-12-18T07:42:33.322Z,48.53
2022-12-18T07:45:01.530Z,48.92
2022-12-18T07:47:33.009Z,50.13
2022-12-18T07:50:00.282Z,45.03
2022-12-18T07:52:27.654Z,50.70
2022-12-18T07:54:54.934Z,51.45
2022-12-18T07:57:48.844Z,44.65
2022-12-18T08:00:10.060Z,56.42
2022-12-18T08:02:40.503Z,39.43
2022-12-18T08:05:10.019Z,48.45
2022-12-18T08:07:37.419Z,50.35
2022-12-18T08:10:05.178Z,49.45
2022-12-18T08:12:33.824Z,49.40
2022-12-18T08:15:01.050Z,53.17
2022-12-18T08:17:28.332Z,53.90
2022-12-18T08:19:55.808Z,55.60
2022-12-18T08:22:23.123Z,53.45
2022-12-18T08:24:50.444Z,52.83
2022-12-18T08:27:33.005Z,53.55
2022-12-18T08:30:00.491Z,43.15
2022-12-18T08:32:29.237Z,48.05
2022-12-18T08:34:56.598Z,47.72
2022-12-18T08:37:23.929Z,54.95
2022-12-18T08:39:51.298Z,47.38
2022-12-18T08:42:37.227Z,47.10
2022-12-18T08:45:05.290Z,47.03
2022-12-18T08:47:32.580Z,46.05
2022-12-18T08:49:59.873Z,48.15
2022-12-18T08:52:27.120Z,48.15
2022-12-18T08:54:54.490Z,45.03
2022-12-18T08:57:21.801Z,52.15
2022-12-18T08:59:49.442Z,49.72
2022-12-18T09:02:16.800Z,50.20
2022-12-18T09:04:45.607Z,45.25
2022-12-18T09:07:14.107Z,47.55
2022-12-18T09:09:41.409Z,53.47
2022-12-18T09:12:08.691Z,48.70
2022-12-18T09:14:36.749Z,49.03
2022-12-18T09:17:04.012Z,46.40
2022-12-18T09:19:31.435Z,53.20
2022-12-18T09:21:58.725Z,47.70
2022-12-18T09:24:25.984Z,45.67
2022-12-18T09:26:58.049Z,46.13
2022-12-18T09:29:25.504Z,45.20
2022-12-18T09:31:52.845Z,44.20
2022-12-18T09:34:22.085Z,43.88
2022-12-18T09:36:49.996Z,37.63
2022-12-18T09:39:19.064Z,39.63
2022-12-18T09:41:59.624Z,43.22
2022-12-18T09:44:45.292Z,47.67
2022-12-18T09:47:20.845Z,43.25
2022-12-18T09:49:59.218Z,41.85
2022-12-18T09:52:33.635Z,41.88
2022-12-18T09:55:12.344Z,40.78
2022-12-18T09:57:48.856Z,42.67
2022-12-18T10:00:26.620Z,42.95
2022-12-18T10:03:00.655Z,47.90
2022-12-18T10:05:56.080Z,41.63
2022-12-18T10:09:16.856Z,45.30
2022-12-18T10:11:46.874Z,45.30
2022-12-18T10:14:41.744Z,46.35
2022-12-18T10:17:33.180Z,41.55
2022-12-18T10:20:32.414Z,41.70
2022-12-18T10:23:18.599Z,36.45
2022-12-18T10:26:04.826Z,37.08
2022-12-18T10:28:34.760Z,39.10
2022-12-18T10:31:02.119Z,36.65
2022-12-18T10:33:31.545Z,38.22
2022-12-18T10:35:58.938Z,35.05
2022-12-18T10:38:31.713Z,34.67
2022-12-18T10:41:00.197Z,33.38
2022-12-18T10:43:34.210Z,37.20
2022-12-18T10:46:10.614Z,36.35
2022-12-18T10:48:48.458Z,38.00
2022-12-18T10:51:31.943Z,40.75
2022-12-18T10:54:04.532Z,40.88
2022-12-18T10:56:38.713Z,44.28
2022-12-18T10:59:09.091Z,40.88
2022-12-18T11:01:59.782Z,39.70
2022-12-18T11:04:30.089Z,38.88
2022-12-18T11:07:04.089Z,36.75
2022-12-18T11:09:36.408Z,41.95
2022-12-18T11:12:17.981Z,41.22
2022-12-18T11:14:51.965Z,42.00
2022-12-18T11:17:28.992Z,35.83
2022-12-18T11:20:01.699Z,39.60
2022-12-18T11:22:37.421Z,35.17
2022-12-18T11:25:35.350Z,42.08
2022-12-18T11:28:06.335Z,38.20
2022-12-18T11:30:36.613Z,42.45
2022-12-18T11:33:04.128Z,33.08
2022-12-18T11:35:38.572Z,39.55
2022-12-18T11:38:25.119Z,34.50
2022-12-18T11:41:04.221Z,32.40
2022-12-18T11:43:46.337Z,31.67
2022-12-18T11:49:23.702Z,30.42
2022-12-18T11:52:17.543Z,30.20
2022-12-18T11:54:44.945Z,35.97
2022-12-18T11:57:35.130Z,33.42
2022-12-18T12:00:14.417Z,32.60
2022-12-18T12:02:59.632Z,33.03
2022-12-18T12:05:42.423Z,33.67
2022-12-18T12:08:24.454Z,35.75
2022-12-18T12:11:18.966Z,41.30
2022-12-18T12:14:13.553Z,36.50
2022-12-18T12:16:46.617Z,32.88
2022-12-18T12:19:40.565Z,31.35
2022-12-18T12:22:20.000Z,32.83
2022-12-18T12:25:16.290Z,36.47
2022-12-18T12:28:22.776Z,36.65
2022-12-18T12:31:31.699Z,35.13
2022-12-18T12:34:39.855Z,33.17
2022-12-18T12:37:24.806Z,38.78
2022-12-18T12:39:53.920Z,39.15
2022-12-18T12:42:45.760Z,46.90
2022-12-18T12:45:22.805Z,45.60
2022-12-18T12:47:51.713Z,48.78
2022-12-18T12:50:21.280Z,40.50
2022-12-18T12:52:55.763Z,42.60
2022-12-18T12:55:28.788Z,42.35
2022-12-18T12:58:17.976Z,39.03
2022-12-18T13:00:58.296Z,35.33
2022-12-18T13:03:35.391Z,38.17
2022-12-18T13:06:13.932Z,38.35
2022-12-18T13:09:02.064Z,33.03
2022-12-18T13:12:03.728Z,31.67
2022-12-18T13:14:33.142Z,34.28
2022-12-18T13:17:22.193Z,34.45
2022-12-18T13:20:11.053Z,39.75
2022-12-18T13:22:40.269Z,37.10
2022-12-18T13:25:29.700Z,29.65
2022-12-18T13:27:59.987Z,35.05
2022-12-18T13:30:33.381Z,35.53
2022-12-18T13:33:16.296Z,28.65
2022-12-18T13:35:54.709Z,31.85
2022-12-18T13:38:39.762Z,31.92
2022-12-18T13:41:19.676Z,34.35
2022-12-18T13:43:48.876Z,34.55
2022-12-18T13:46:22.556Z,38.40
2022-12-18T13:49:12.991Z,33.03
2022-12-18T13:51:47.815Z,41.80
2022-12-18T13:54:40.573Z,38.92
2022-12-18T13:57:26.710Z,31.38
2022-12-18T13:59:54.085Z,33.20
2022-12-18T14:02:29.821Z,34.08
2022-12-18T14:04:57.625Z,33.50
2022-12-18T14:07:27.414Z,35.60
2022-12-18T14:10:26.037Z,34.50
2022-12-18T14:12:57.831Z,33.42
2022-12-18T14:15:27.711Z,34.03
2022-12-18T14:18:20.147Z,38.53
2022-12-18T14:20:52.661Z,36.67
2022-12-18T14:23:37.048Z,33.58
2022-12-18T14:26:24.883Z,36.50
2022-12-18T14:28:52.391Z,40.50
2022-12-18T14:31:27.600Z,40.42
2022-12-18T14:33:55.511Z,43.83
2022-12-18T14:36:25.737Z,41.45
2022-12-18T14:38:58.820Z,42.88
2022-12-18T14:41:27.310Z,34.42
2022-12-18T14:43:55.705Z,35.95
2022-12-18T14:46:38.767Z,38.17
2022-12-18T14:49:22.454Z,40.92
2022-12-18T14:51:53.132Z,43.78
2022-12-18T14:54:22.074Z,56.13
2022-12-18T14:57:15.327Z,54.35
2022-12-18T14:59:42.691Z,47.60
2022-12-18T15:02:24.443Z,40.33
2022-12-18T15:07:51.646Z,41.45
2022-12-18T15:10:23.697Z,41.58
2022-12-18T15:15:40.653Z,42.08
2022-12-18T15:18:13.792Z,48.08
2022-12-18T15:20:50.336Z,46.80
2022-12-18T15:23:22.865Z,49.10
2022-12-18T15:26:02.606Z,50.92
2022-12-18T15:28:38.010Z,50.85
2022-12-18T15:31:31.462Z,52.70
2022-12-18T15:34:00.364Z,49.50
2022-12-18T15:36:28.928Z,42.80
2022-12-18T15:39:04.594Z,47.92
2022-12-18T15:41:36.146Z,49.38
2022-12-18T15:44:04.790Z,47.78
2022-12-18T15:46:32.466Z,47.83
2022-12-18T15:49:02.621Z,51.58
2022-12-18T15:51:36.600Z,46.55
2022-12-18T15:54:07.231Z,42.45
2022-12-18T15:56:53.295Z,51.53
2022-12-18T15:59:21.835Z,45.30
2022-12-18T16:01:51.743Z,49.90
2022-12-18T16:04:21.719Z,51.95
2022-12-18T16:09:40.211Z,46.37
2022-12-18T16:12:15.243Z,43.65
2022-12-18T16:14:42.749Z,47.92
2022-12-18T16:17:12.868Z,48.38
2022-12-18T16:19:40.228Z,51.22
2022-12-18T16:22:15.986Z,52.42
2022-12-18T16:24:44.530Z,44.58
2022-12-18T16:27:11.799Z,41.72
2022-12-18T16:29:39.128Z,44.13
2022-12-18T16:32:06.473Z,47.78
2022-12-18T16:34:36.166Z,50.08
2022-12-18T16:37:06.663Z,44.80
2022-12-18T16:39:35.791Z,45.28
2022-12-18T16:42:15.563Z,44.63
2022-12-18T16:44:43.967Z,48.97
2022-12-18T16:47:13.297Z,47.47
2022-12-18T16:49:43.549Z,49.10
2022-12-18T16:52:10.832Z,52.15
2022-12-18T16:54:38.157Z,46.70
2022-12-18T16:57:05.628Z,47.28
2022-12-18T16:59:33.478Z,52.90
2022-12-18T17:02:02.100Z,49.10
2022-12-18T17:04:29.449Z,50.45
2022-12-18T17:06:57.184Z,52.95
2022-12-18T17:09:27.161Z,47.88
2022-12-18T17:11:59.665Z,52.17
2022-12-18T17:14:30.448Z,48.97
2022-12-18T17:17:20.261Z,51.03
2022-12-18T17:19:45.517Z,54.53
2022-12-18T17:22:12.878Z,48.85
2022-12-18T17:24:40.331Z,55.03
2022-12-18T17:27:14.764Z,67.45
2022-12-18T17:29:48.203Z,60.05
2022-12-18T17:32:17.145Z,57.22
2022-12-18T17:34:44.566Z,54.75
2022-12-18T17:37:11.960Z,56.00
2022-12-18T17:39:40.859Z,53.05
2022-12-18T17:42:15.237Z,49.78
2022-12-18T17:44:44.504Z,50.17
2022-12-18T17:47:13.514Z,61.92
2022-12-18T17:49:41.178Z,61.70
2022-12-18T17:52:08.911Z,60.30
2022-12-18T17:54:39.762Z,55.53
2022-12-18T17:57:07.287Z,49.75
2022-12-18T17:59:34.797Z,53.55
2022-12-18T18:02:02.556Z,53.45
2022-12-18T18:04:30.329Z,53.33
2022-12-18T18:06:58.062Z,55.38
2022-12-18T18:09:25.867Z,58.72
2022-12-18T18:12:11.670Z,54.67
2022-12-18T18:14:39.262Z,50.17
2022-12-18T18:17:06.757Z,50.85
2022-12-18T18:19:34.469Z,47.53
2022-12-18T18:22:02.964Z,46.72
2022-12-18T18:24:30.883Z,52.42
2022-12-18T18:27:00.258Z,50.38
2022-12-18T18:29:31.958Z,56.20
2022-12-18T18:32:00.009Z,58.75
2022-12-18T18:34:30.440Z,49.70
2022-12-18T18:36:58.032Z,55.13
2022-12-18T18:39:26.117Z,53.72
2022-12-18T18:41:54.100Z,51.70
2022-12-18T18:44:24.438Z,51.40
2022-12-18T18:46:55.394Z,53.03
2022-12-18T18:49:26.868Z,54.00
2022-12-18T18:51:55.339Z,51.13
2022-12-18T18:54:22.813Z,47.75
2022-12-18T18:59:38.490Z,45.38
2022-12-18T19:02:06.204Z,46.70
2022-12-18T19:04:34.402Z,45.20
2022-12-18T19:07:02.088Z,46.85
2022-12-18T19:09:29.767Z,40.53
2022-12-18T19:12:16.276Z,48.50
2022-12-18T19:14:44.906Z,42.33
2022-12-18T19:17:12.317Z,52.70
2022-12-18T19:19:39.918Z,48.72
2022-12-18T19:22:07.621Z,48.35
2022-12-18T19:24:36.105Z,50.15
2022-12-18T19:27:03.627Z,51.95
2022-12-18T19:29:31.134Z,42.70
2022-12-18T19:31:58.451Z,46.80
2022-12-18T19:34:25.937Z,41.95
2022-12-18T19:36:59.299Z,42.85
2022-12-18T19:39:27.242Z,49.45
2022-12-18T19:41:54.735Z,42.95
2022-12-18T19:44:22.251Z,41.88
2022-12-18T19:46:52.439Z,45.40
2022-12-18T19:49:21.019Z,43.83
2022-12-18T19:51:50.217Z,40.15
2022-12-18T19:54:18.151Z,44.03
2022-12-18T19:56:46.275Z,40.28
2022-12-18T19:59:14.018Z,48.65
2022-12-18T20:01:41.977Z,52.60
2022-12-18T20:04:09.710Z,45.78
2022-12-18T20:06:48.219Z,40.45
2022-12-18T20:09:15.686Z,43.28
2022-12-18T20:11:43.841Z,40.30
2022-12-18T20:14:12.303Z,42.72
2022-12-18T20:16:39.777Z,46.75
2022-12-18T20:19:08.461Z,44.67
2022-12-18T20:21:36.126Z,42.58
2022-12-18T20:24:03.572Z,43.38
2022-12-18T20:26:30.960Z,41.15
2022-12-18T20:28:58.431Z,37.42
2022-12-18T20:31:25.829Z,40.08
2022-12-18T20:33:54.566Z,41.17
2022-12-18T20:38:57.209Z,44.83
2022-12-18T20:41:37.288Z,37.47
2022-12-18T20:44:22.442Z,42.05
2022-12-18T20:46:53.381Z,37.58
2022-12-18T20:49:20.985Z,40.33
2022-12-18T20:51:54.146Z,41.03
2022-12-18T20:54:22.365Z,37.30
2022-12-18T20:56:50.063Z,40.00
2022-12-18T20:59:17.645Z,43.83
2022-12-18T21:01:48.596Z,42.58
2022-12-18T21:06:53.379Z,39.92
2022-12-18T21:09:25.301Z,39.88
2022-12-18T21:12:14.035Z,48.00
2022-12-18T21:14:42.615Z,36.75
2022-12-18T21:17:10.725Z,39.13
2022-12-18T21:19:38.441Z,38.42
2022-12-18T21:22:05.911Z,39.13
2022-12-18T21:24:33.702Z,38.00
2022-12-18T21:27:02.025Z,43.75
2022-12-18T21:29:29.575Z,41.95
2022-12-18T21:31:56.832Z,42.60
2022-12-18T21:34:28.322Z,39.88
2022-12-18T21:36:57.494Z,40.72
2022-12-18T21:39:26.699Z,43.58
2022-12-18T21:42:12.780Z,44.65
2022-12-18T21:44:42.035Z,39.03
2022-12-18T21:47:22.029Z,40.00
2022-12-18T21:49:52.796Z,42.20
2022-12-18T21:52:28.609Z,42.35
2022-12-18T21:55:08.043Z,44.58
2022-12-18T21:57:36.730Z,39.47
2022-12-18T22:00:05.622Z,40.85
2022-12-18T22:02:39.735Z,43.15
2022-12-18T22:05:07.665Z,40.53
2022-12-18T22:07:34.971Z,37.08
2022-12-18T22:10:02.409Z,36.33
2022-12-18T22:12:38.044Z,40.03
2022-12-18T22:15:12.479Z,37.95
2022-12-18T22:17:49.012Z,43.83
2022-12-18T22:20:16.464Z,43.15
2022-12-18T22:22:43.782Z,41.30
2022-12-18T22:25:11.309Z,45.50
2022-12-18T22:27:38.546Z,37.85
2022-12-18T22:30:06.622Z,41.72
2022-12-18T22:32:35.224Z,45.08
2022-12-18T22:35:09.179Z,41.15
2022-12-18T22:37:37.838Z,37.40
2022-12-18T22:40:07.232Z,44.15
2022-12-18T22:42:34.897Z,47.15
2022-12-18T22:45:02.326Z,40.67
2022-12-18T22:47:30.872Z,44.85
2022-12-18T22:49:58.766Z,45.22
2022-12-18T22:52:25.996Z,41.22
2022-12-18T22:54:54.228Z,48.45
2022-12-18T22:57:22.834Z,41.58
2022-12-18T22:59:50.974Z,38.47
2022-12-18T23:02:19.320Z,45.00
2022-12-18T23:04:47.825Z,44.35
2022-12-18T23:07:16.181Z,43.85
2022-12-18T23:09:44.269Z,43.88
2022-12-18T23:12:20.522Z,42.45
2022-12-18T23:14:47.938Z,43.00
2022-12-18T23:17:15.329Z,43.22
2022-12-18T23:19:48.537Z,46.33
2022-12-18T23:22:17.125Z,47.00
2022-12-18T23:24:44.641Z,46.13
2022-12-18T23:27:12.300Z,43.67
2022-12-18T23:29:40.790Z,48.67
2022-12-18T23:32:08.146Z,45.08
2022-12-18T23:34:35.433Z,41.63
2022-12-18T23:37:03.940Z,47.72
2022-12-18T23:39:31.475Z,43.05
2022-12-18T23:41:59.481Z,40.42
2022-12-18T23:44:26.835Z,43.65
2022-12-18T23:46:54.238Z,45.08
2022-12-18T23:49:21.594Z,47.05
2022-12-18T23:51:49.384Z,46.72
2022-12-18T23:54:16.737Z,42.13
2022-12-18T23:56:44.010Z,41.38
2022-12-18T23:59:11.256Z,42.17
